createdAt,value
2018-09-01T00:00:50.777Z,53.21
2018-09-01T00:01:50.749Z,53.11
2018-09-01T00:02:50.701Z,52.92
2018-09-01T00:03:50.655Z,52.82
2018-09-01T00:04:50.614Z,53.41
2018-09-01T00:05:50.570Z,53.79
2018-09-01T00:06:50.520Z,53.59
2018-09-01T00:07:50.470Z,53.79
2018-09-01T00:08:50.438Z,54.47
2018-09-01T00:09:50.397Z,54.47
2018-09-01T00:10:50.360Z,54.08
2018-09-01T00:11:50.310Z,54.27
2018-09-01T00:12:50.263Z,54.17
2018-09-01T00:13:50.215Z,53.69
2018-09-01T00:14:50.173Z,54.27
2018-09-01T00:15:50.130Z,54.17
2018-09-01T00:16:50.087Z,53.59
2018-09-01T00:17:50.033Z,54.15
2018-09-01T00:18:49.995Z,54.27
2018-09-01T00:19:49.944Z,53.79
2018-09-01T00:20:49.893Z,53.89
2018-09-01T00:21:49.868Z,54.15
2018-09-01T00:22:49.818Z,54.47
2018-09-01T00:23:49.766Z,54.37
2018-09-01T00:24:49.728Z,54.47
2018-09-01T00:25:49.692Z,54.83
2018-09-01T00:26:49.642Z,54.93
2018-09-01T00:27:49.591Z,55.02
2018-09-01T00:28:49.553Z,54.73
2018-09-01T00:29:49.495Z,54.44
2018-09-01T00:30:49.465Z,54.53
2018-09-01T00:31:49.419Z,54.53
2018-09-01T00:32:49.376Z,54.83
2018-09-01T00:33:49.335Z,54.63
2018-09-01T00:34:49.287Z,54.44
2018-09-01T00:35:49.244Z,54.53
2018-09-01T00:36:49.201Z,54.83
2018-09-01T00:37:49.157Z,55.02
2018-09-01T00:38:49.107Z,54.53
2018-09-01T00:39:49.069Z,54.73
2018-09-01T00:40:49.021Z,54.93
2018-09-01T00:41:48.960Z,54.63
2018-09-01T00:42:48.930Z,55.11
2018-09-01T00:43:48.890Z,54.83
2018-09-01T00:44:48.842Z,54.93
2018-09-01T00:45:48.799Z,55.31
2018-09-01T00:46:48.755Z,55.11
2018-09-01T00:47:48.703Z,55.89
2018-09-01T00:48:48.671Z,55.51
2018-09-01T00:49:48.608Z,55.11
2018-09-01T00:50:48.572Z,55.89
2018-09-01T00:51:48.532Z,55.31
2018-09-01T00:52:48.489Z,55.41
2018-09-01T00:53:48.430Z,55.38
2018-09-01T00:54:48.395Z,55.70
2018-09-01T00:55:48.351Z,55.51
2018-09-01T00:56:48.295Z,55.60
2018-09-01T00:57:48.251Z,56.25
2018-09-01T00:58:48.223Z,55.47
2018-09-01T00:59:48.174Z,55.77
2018-09-01T01:00:48.133Z,55.47
2018-09-01T01:01:48.094Z,55.57
2018-09-01T01:02:48.047Z,55.96
2018-09-01T01:03:48.001Z,56.63
2018-09-01T01:04:47.955Z,56.54
2018-09-01T01:05:47.919Z,56.35
2018-09-01T01:06:47.859Z,56.45
2018-09-01T01:07:47.821Z,56.15
2018-09-01T01:08:47.779Z,55.19
2018-09-01T01:09:47.739Z,55.38
2018-09-01T01:10:47.693Z,55.09
2018-09-01T01:11:47.642Z,55.87
2018-09-01T01:12:47.601Z,56.54
2018-09-01T01:13:47.556Z,56.35
2018-09-01T01:14:47.496Z,56.45
2018-09-01T01:15:47.476Z,56.99
2018-09-01T01:16:47.419Z,57.29
2018-09-01T01:17:47.377Z,57.29
2018-09-01T01:18:47.314Z,57.87
2018-09-01T01:19:47.287Z,58.15
2018-09-01T01:20:47.243Z,57.87
2018-09-01T01:21:47.191Z,58.35
2018-09-01T01:22:47.150Z,58.25
2018-09-01T01:23:47.111Z,57.48
2018-09-01T01:24:47.071Z,57.29
2018-09-01T01:25:47.006Z,57.48
2018-09-01T01:26:46.969Z,57.29
2018-09-01T01:27:46.923Z,57.48
2018-09-01T01:28:46.883Z,57.29
2018-09-01T01:29:46.838Z,57.48
2018-09-01T01:30:46.794Z,57.67
2018-09-01T01:31:46.752Z,57.67
2018-09-01T01:32:46.699Z,58.35
2018-09-01T01:33:46.662Z,58.06
2018-09-01T01:34:46.620Z,58.15
2018-09-01T01:35:46.559Z,58.15
2018-09-01T01:36:46.522Z,58.06
2018-09-01T01:37:46.482Z,58.45
2018-09-01T01:38:46.437Z,58.35
2018-09-01T01:39:46.388Z,58.45
2018-09-01T01:40:46.347Z,58.35
2018-09-01T01:41:46.303Z,58.54
2018-09-01T01:42:46.257Z,58.54
2018-09-01T01:43:46.215Z,58.45
2018-09-01T01:44:46.167Z,58.45
2018-09-01T01:45:46.126Z,58.45
2018-09-01T01:46:46.077Z,58.73
2018-09-01T01:47:46.034Z,58.64
2018-09-01T01:48:45.991Z,59.22
2018-09-01T01:49:45.951Z,59.02
2018-09-01T01:50:45.899Z,59.02
2018-09-01T01:51:45.853Z,59.31
2018-09-01T01:52:45.806Z,59.09
2018-09-01T01:53:45.764Z,58.83
2018-09-01T01:54:45.719Z,58.93
2018-09-01T01:55:45.674Z,59.09
2018-09-01T01:56:45.629Z,59.00
2018-09-01T01:57:45.590Z,59.48
2018-09-01T01:58:45.534Z,59.19
2018-09-01T01:59:45.497Z,59.09
2018-09-01T02:00:45.457Z,59.58
2018-09-01T02:01:45.413Z,59.96
2018-09-01T02:02:45.359Z,59.77
2018-09-01T02:03:45.324Z,59.96
2018-09-01T02:04:45.256Z,60.35
2018-09-01T02:05:45.212Z,60.25
2018-09-01T02:06:45.183Z,60.64
2018-09-01T02:07:45.143Z,60.25
2018-09-01T02:08:45.090Z,60.44
2018-09-01T02:09:45.053Z,60.54
2018-09-01T02:10:45.000Z,60.73
2018-09-01T02:11:44.957Z,60.83
2018-09-01T02:12:44.918Z,61.12
2018-09-01T02:13:44.862Z,60.73
2018-09-01T02:14:44.812Z,60.83
2018-09-01T02:15:44.776Z,61.22
2018-09-01T02:16:44.734Z,60.93
2018-09-01T02:17:44.670Z,61.51
2018-09-01T02:18:44.634Z,61.57
2018-09-01T02:19:44.598Z,61.99
2018-09-01T02:20:44.556Z,61.70
2018-09-01T02:21:44.514Z,62.08
2018-09-01T02:22:44.457Z,61.51
2018-09-01T02:23:44.419Z,61.02
2018-09-01T02:24:44.370Z,61.60
2018-09-01T02:25:44.329Z,61.60
2018-09-01T02:26:44.277Z,61.60
2018-09-01T02:27:44.236Z,61.51
2018-09-01T02:28:44.194Z,61.12
2018-09-01T02:29:44.144Z,61.02
2018-09-01T02:30:44.102Z,61.31
2018-09-01T02:31:44.052Z,61.22
2018-09-01T02:32:44.020Z,61.02
2018-09-01T02:33:43.963Z,61.51
2018-09-01T02:34:43.908Z,62.18
2018-09-01T02:35:43.883Z,62.08
2018-09-01T02:36:43.827Z,61.96
2018-09-01T02:37:43.794Z,62.25
2018-09-01T02:38:43.740Z,62.15
2018-09-01T02:39:43.680Z,62.63
2018-09-01T02:40:43.652Z,62.73
2018-09-01T02:41:43.606Z,62.73
2018-09-01T02:42:43.559Z,62.73
2018-09-01T02:43:43.518Z,62.63
2018-09-01T02:44:43.470Z,63.02
2018-09-01T02:45:43.429Z,63.31
2018-09-01T02:46:43.383Z,62.73
2018-09-01T02:47:43.334Z,63.12
2018-09-01T02:48:43.286Z,62.82
2018-09-01T02:49:43.248Z,63.21
2018-09-01T02:50:43.195Z,62.92
2018-09-01T02:51:43.160Z,62.92
2018-09-01T02:52:43.106Z,63.31
2018-09-01T02:53:43.070Z,63.50
2018-09-01T02:54:43.021Z,63.40
2018-09-01T02:55:42.975Z,63.21
2018-09-01T02:56:42.931Z,63.31
2018-09-01T02:57:42.893Z,63.40
2018-09-01T02:58:42.841Z,63.31
2018-09-01T02:59:42.795Z,63.50
2018-09-01T03:00:42.746Z,63.40
2018-09-01T03:01:42.701Z,63.60
2018-09-01T03:02:42.765Z,63.40
2018-09-01T03:03:42.615Z,63.31
2018-09-01T03:04:42.560Z,63.60
2018-09-01T03:05:42.531Z,63.40
2018-09-01T03:06:42.478Z,63.31
2018-09-01T03:07:42.429Z,62.63
2018-09-01T03:08:42.391Z,62.73
2018-09-01T03:09:42.347Z,63.31
2018-09-01T03:10:42.308Z,63.31
2018-09-01T03:11:42.258Z,63.40
2018-09-01T03:12:42.195Z,63.50
2018-09-01T03:13:42.146Z,64.18
2018-09-01T03:14:42.124Z,63.85
2018-09-01T03:15:42.068Z,63.76
2018-09-01T03:16:42.030Z,64.05
2018-09-01T03:17:41.972Z,63.47
2018-09-01T03:18:41.942Z,63.28
2018-09-01T03:19:41.901Z,63.40
2018-09-01T03:20:41.845Z,63.31
2018-09-01T03:21:41.814Z,62.73
2018-09-01T03:22:41.753Z,63.18
2018-09-01T03:23:41.715Z,63.76
2018-09-01T03:24:41.670Z,62.89
2018-09-01T03:25:41.616Z,62.70
2018-09-01T03:26:41.591Z,63.76
2018-09-01T03:27:41.531Z,63.37
2018-09-01T03:28:41.493Z,63.21
2018-09-01T03:29:41.439Z,63.09
2018-09-01T03:30:41.434Z,63.85
2018-09-01T03:31:41.343Z,63.67
2018-09-01T03:32:41.306Z,63.37
2018-09-01T03:33:41.245Z,63.18
2018-09-01T03:34:41.215Z,63.09
2018-09-01T03:35:41.157Z,63.57
2018-09-01T03:36:41.128Z,63.89
2018-09-01T03:37:41.087Z,63.67
2018-09-01T03:38:41.032Z,63.85
2018-09-01T03:39:40.990Z,64.05
2018-09-01T03:40:40.947Z,63.76
2018-09-01T03:41:40.901Z,63.76
2018-09-01T03:42:40.851Z,63.95
2018-09-01T03:43:40.848Z,63.67
2018-09-01T03:44:40.771Z,64.24
2018-09-01T03:45:40.713Z,64.05
2018-09-01T03:46:40.678Z,63.76
2018-09-01T03:47:40.630Z,64.05
2018-09-01T03:48:40.577Z,64.15
2018-09-01T03:49:40.539Z,63.95
2018-09-01T03:50:40.500Z,65.08
2018-09-01T03:51:40.448Z,64.50
2018-09-01T03:52:40.397Z,64.98
2018-09-01T03:53:40.350Z,65.37
2018-09-01T03:54:40.317Z,65.37
2018-09-01T03:55:40.254Z,65.56
2018-09-01T03:56:40.222Z,65.47
2018-09-01T03:57:40.178Z,65.66
2018-09-01T03:58:40.124Z,65.56
2018-09-01T03:59:40.089Z,65.75
2018-09-01T04:00:40.038Z,65.85
2018-09-01T04:01:39.996Z,65.56
2018-09-01T04:02:39.948Z,65.66
2018-09-01T04:03:39.906Z,65.47
2018-09-01T04:04:39.855Z,65.37
2018-09-01T04:05:39.812Z,66.04
2018-09-01T04:06:39.765Z,65.85
2018-09-01T04:07:39.723Z,65.85
2018-09-01T04:08:39.678Z,65.37
2018-09-01T04:09:39.614Z,65.37
2018-09-01T04:10:39.586Z,65.66
2018-09-01T04:11:39.550Z,65.37
2018-09-01T04:12:39.492Z,65.47
2018-09-01T04:13:39.447Z,65.75
2018-09-01T04:14:39.410Z,65.85
2018-09-01T04:15:39.368Z,65.85
2018-09-01T04:16:39.313Z,65.66
2018-09-01T04:17:39.261Z,66.04
2018-09-01T04:18:39.221Z,66.52
2018-09-01T04:19:39.177Z,66.88
2018-09-01T04:20:39.127Z,66.62
2018-09-01T04:21:39.089Z,67.20
2018-09-01T04:22:39.041Z,67.26
2018-09-01T04:23:38.998Z,67.74
2018-09-01T04:24:38.939Z,67.65
2018-09-01T04:25:38.909Z,66.88
2018-09-01T04:26:38.860Z,67.46
2018-09-01T04:27:38.814Z,67.94
2018-09-01T04:28:38.759Z,68.16
2018-09-01T04:29:38.724Z,67.68
2018-09-01T04:30:38.678Z,67.68
2018-09-01T04:31:38.631Z,67.97
2018-09-01T04:32:38.587Z,67.58
2018-09-01T04:33:38.536Z,68.52
2018-09-01T04:34:38.496Z,68.65
2018-09-01T04:35:38.452Z,68.71
2018-09-01T04:36:38.403Z,69.03
2018-09-01T04:37:38.346Z,69.09
2018-09-01T04:38:38.310Z,69.23
2018-09-01T04:39:38.267Z,69.23
2018-09-01T04:40:38.224Z,69.32
2018-09-01T04:41:38.175Z,69.13
2018-09-01T04:42:38.133Z,69.13
2018-09-01T04:43:38.082Z,69.03
2018-09-01T04:44:38.045Z,69.51
2018-09-01T04:45:38.002Z,69.51
2018-09-01T04:46:37.948Z,69.61
2018-09-01T04:47:37.905Z,70.09
2018-09-01T04:48:37.858Z,70.57
2018-09-01T04:49:37.815Z,70.76
2018-09-01T04:50:37.769Z,70.19
2018-09-01T04:51:37.718Z,71.15
2018-09-01T04:52:37.677Z,71.25
2018-09-01T04:53:37.633Z,71.83
2018-09-01T04:54:37.587Z,71.54
2018-09-01T04:55:37.542Z,71.64
2018-09-01T04:56:37.497Z,72.89
2018-09-01T04:57:37.447Z,72.60
2018-09-01T04:58:37.412Z,72.27
2018-09-01T04:59:37.359Z,72.02
2018-09-01T05:00:37.303Z,72.41
2018-09-01T05:01:37.267Z,72.41
2018-09-01T05:02:37.226Z,72.50
2018-09-01T05:03:37.178Z,73.18
2018-09-01T05:04:37.131Z,73.08
2018-09-01T05:05:37.088Z,73.18
2018-09-01T05:06:37.035Z,73.37
2018-09-01T05:07:36.996Z,72.99
2018-09-01T05:08:36.951Z,73.05
2018-09-01T05:09:36.907Z,74.01
2018-09-01T05:10:36.859Z,73.57
2018-09-01T05:11:36.817Z,73.14
2018-09-01T05:12:36.767Z,73.47
2018-09-01T05:13:36.727Z,73.14
2018-09-01T05:14:36.677Z,73.05
2018-09-01T05:15:36.638Z,73.05
2018-09-01T05:16:36.573Z,73.43
2018-09-01T05:17:36.542Z,73.24
2018-09-01T05:18:36.487Z,73.24
2018-09-01T05:19:36.438Z,73.24
2018-09-01T05:20:36.391Z,73.72
2018-09-01T05:21:36.361Z,73.43
2018-09-01T05:22:36.314Z,74.01
2018-09-01T05:23:36.262Z,74.10
2018-09-01T05:24:36.214Z,73.82
2018-09-01T05:25:36.179Z,74.01
2018-09-01T05:26:36.131Z,74.20
2018-09-01T05:27:36.074Z,74.58
2018-09-01T05:28:36.046Z,74.58
2018-09-01T05:29:35.996Z,74.68
2018-09-01T05:30:35.957Z,74.40
2018-09-01T05:31:35.898Z,74.49
2018-09-01T05:32:35.852Z,74.58
2018-09-01T05:33:35.818Z,74.68
2018-09-01T05:34:35.768Z,74.40
2018-09-01T05:35:35.728Z,74.55
2018-09-01T05:36:35.758Z,74.40
2018-09-01T05:37:35.630Z,74.40
2018-09-01T05:38:35.572Z,74.30
2018-09-01T05:39:35.542Z,74.88
2018-09-01T05:40:35.494Z,74.58
2018-09-01T05:41:35.456Z,74.36
2018-09-01T05:42:35.403Z,74.74
2018-09-01T05:43:35.388Z,74.65
2018-09-01T05:44:35.309Z,75.03
2018-09-01T05:45:35.268Z,74.74
2018-09-01T05:46:35.226Z,74.65
2018-09-01T05:47:35.175Z,74.07
2018-09-01T05:48:35.118Z,73.91
2018-09-01T05:49:35.084Z,73.78
2018-09-01T05:50:35.041Z,73.39
2018-09-01T05:51:34.987Z,73.78
2018-09-01T05:52:34.948Z,73.39
2018-09-01T05:53:34.903Z,73.68
2018-09-01T05:54:34.842Z,73.39
2018-09-01T05:55:34.818Z,74.07
2018-09-01T05:56:34.765Z,73.97
2018-09-01T05:57:34.719Z,74.16
2018-09-01T05:58:34.670Z,74.16
2018-09-01T05:59:34.636Z,73.88
2018-09-01T06:00:34.674Z,73.58
2018-09-01T06:01:34.523Z,73.39
2018-09-01T06:02:34.493Z,73.78
2018-09-01T06:03:34.448Z,73.88
2018-09-01T06:04:34.399Z,73.68
2018-09-01T06:05:34.358Z,73.78
2018-09-01T06:06:34.307Z,73.49
2018-09-01T06:07:34.253Z,73.78
2018-09-01T06:08:34.218Z,73.68
2018-09-01T06:09:34.167Z,73.97
2018-09-01T06:10:34.122Z,73.88
2018-09-01T06:11:34.077Z,74.41
2018-09-01T06:12:34.031Z,74.71
2018-09-01T06:13:33.986Z,74.99
2018-09-01T06:14:33.935Z,75.19
2018-09-01T06:15:33.880Z,75.67
2018-09-01T06:16:33.855Z,75.57
2018-09-01T06:17:33.893Z,75.38
2018-09-01T06:18:33.759Z,75.48
2018-09-01T06:19:33.705Z,75.48
2018-09-01T06:20:33.659Z,75.09
2018-09-01T06:21:33.624Z,75.86
2018-09-01T06:22:33.569Z,75.96
2018-09-01T06:23:33.528Z,75.96
2018-09-01T06:24:33.476Z,76.25
2018-09-01T06:25:33.434Z,76.06
2018-09-01T06:26:33.389Z,75.76
2018-09-01T06:27:33.342Z,75.19
2018-09-01T06:28:33.296Z,75.19
2018-09-01T06:29:33.252Z,75.19
2018-09-01T06:30:33.207Z,75.86
2018-09-01T06:31:33.155Z,76.15
2018-09-01T06:32:33.113Z,75.67
2018-09-01T06:33:33.066Z,75.57
2018-09-01T06:34:33.050Z,76.06
2018-09-01T06:35:32.971Z,75.96
2018-09-01T06:36:32.924Z,75.76
2018-09-01T06:37:32.928Z,75.96
2018-09-01T06:38:32.837Z,75.76
2018-09-01T06:39:32.820Z,76.06
2018-09-01T06:40:32.745Z,75.57
2018-09-01T06:41:32.695Z,75.57
2018-09-01T06:42:32.654Z,75.09
2018-09-01T06:43:32.610Z,74.99
2018-09-01T06:44:32.562Z,75.09
2018-09-01T06:45:32.518Z,74.61
2018-09-01T06:46:32.465Z,74.32
2018-09-01T06:47:32.423Z,74.51
2018-09-01T06:48:32.370Z,74.99
2018-09-01T06:49:32.316Z,74.80
2018-09-01T06:50:32.290Z,74.51
2018-09-01T06:51:32.274Z,74.32
2018-09-01T06:52:32.195Z,74.51
2018-09-01T06:53:32.143Z,74.41
2018-09-01T06:54:32.111Z,75.28
2018-09-01T06:55:32.040Z,75.86
2018-09-01T06:56:32.012Z,75.96
2018-09-01T06:57:31.966Z,75.96
2018-09-01T06:58:31.926Z,76.25
2018-09-01T06:59:31.857Z,76.50
2018-09-01T07:00:31.826Z,76.50
2018-09-01T07:01:31.787Z,76.50
2018-09-01T07:02:31.741Z,76.50
2018-09-01T07:03:31.691Z,76.31
2018-09-01T07:04:31.633Z,76.69
2018-09-01T07:05:31.595Z,76.31
2018-09-01T07:06:31.557Z,76.69
2018-09-01T07:07:31.512Z,76.69
2018-09-01T07:08:31.444Z,76.69
2018-09-01T07:09:31.417Z,76.88
2018-09-01T07:10:31.351Z,77.17
2018-09-01T07:11:31.325Z,76.40
2018-09-01T07:12:31.276Z,76.78
2018-09-01T07:13:31.224Z,76.40
2018-09-01T07:14:31.232Z,76.06
2018-09-01T07:15:31.136Z,76.01
2018-09-01T07:16:31.096Z,76.50
2018-09-01T07:17:31.046Z,76.40
2018-09-01T07:18:30.993Z,75.86
2018-09-01T07:19:30.961Z,76.40
2018-09-01T07:20:30.903Z,76.40
2018-09-01T07:21:30.849Z,76.63
2018-09-01T07:22:30.817Z,76.50
2018-09-01T07:23:30.771Z,76.31
2018-09-01T07:24:30.720Z,77.08
2018-09-01T07:25:30.677Z,77.08
2018-09-01T07:26:30.632Z,77.08
2018-09-01T07:27:30.592Z,76.78
2018-09-01T07:28:30.541Z,76.25
2018-09-01T07:29:30.491Z,76.44
2018-09-01T07:30:30.659Z,76.25
2018-09-01T07:31:30.752Z,76.69
2018-09-01T07:32:30.345Z,76.31
2018-09-01T07:33:30.319Z,76.98
2018-09-01T07:34:30.265Z,76.88
2018-09-01T07:35:30.216Z,76.40
2018-09-01T07:36:30.168Z,76.69
2018-09-01T07:37:30.134Z,77.17
2018-09-01T07:38:30.073Z,78.23
2018-09-01T07:39:30.030Z,78.03
2018-09-01T07:40:29.985Z,78.42
2018-09-01T07:41:29.941Z,77.46
2018-09-01T07:42:29.897Z,78.13
2018-09-01T07:43:29.847Z,78.03
2018-09-01T07:44:29.808Z,77.36
2018-09-01T07:45:29.741Z,77.46
2018-09-01T07:46:29.712Z,77.17
2018-09-01T07:47:29.663Z,77.17
2018-09-01T07:48:29.613Z,77.17
2018-09-01T07:49:29.560Z,77.46
2018-09-01T07:50:29.523Z,77.26
2018-09-01T07:51:29.480Z,78.33
2018-09-01T07:52:29.431Z,78.33
2018-09-01T07:53:29.386Z,78.23
2018-09-01T07:54:29.399Z,78.42
2018-09-01T07:55:29.297Z,77.17
2018-09-01T07:56:29.251Z,77.56
2018-09-01T07:57:29.204Z,77.84
2018-09-01T07:58:29.160Z,78.09
2018-09-01T07:59:29.116Z,77.81
2018-09-01T08:00:29.064Z,78.13
2018-09-01T08:01:29.022Z,78.03
2018-09-01T08:02:28.976Z,78.13
2018-09-01T08:03:28.923Z,78.03
2018-09-01T08:04:28.882Z,78.09
2018-09-01T08:05:28.848Z,78.03
2018-09-01T08:06:28.777Z,78.67
2018-09-01T08:07:28.759Z,78.58
2018-09-01T08:08:28.700Z,78.58
2018-09-01T08:09:28.635Z,78.38
2018-09-01T08:10:28.588Z,78.67
2018-09-01T08:11:28.550Z,78.86
2018-09-01T08:12:28.517Z,79.05
2018-09-01T08:13:28.466Z,79.05
2018-09-01T08:14:28.447Z,78.96
2018-09-01T08:15:28.379Z,79.44
2018-09-01T08:16:28.328Z,79.25
2018-09-01T08:17:28.281Z,79.82
2018-09-01T08:18:28.223Z,79.63
2018-09-01T08:19:28.189Z,79.28
2018-09-01T08:20:28.149Z,78.90
2018-09-01T08:21:28.095Z,78.61
2018-09-01T08:22:28.054Z,78.58
2018-09-01T08:23:27.998Z,79.15
2018-09-01T08:24:27.959Z,79.63
2018-09-01T08:25:27.917Z,80.21
2018-09-01T08:26:27.863Z,79.92
2018-09-01T08:27:27.820Z,79.73
2018-09-01T08:28:27.757Z,80.50
2018-09-01T08:29:27.723Z,80.25
2018-09-01T08:30:27.663Z,79.63
2018-09-01T08:31:27.629Z,79.92
2018-09-01T08:32:27.571Z,79.73
2018-09-01T08:33:27.570Z,79.53
2018-09-01T08:34:27.497Z,78.86
2018-09-01T08:35:27.454Z,79.44
2018-09-01T08:36:27.404Z,79.53
2018-09-01T08:37:27.355Z,79.53
2018-09-01T08:38:27.304Z,79.92
2018-09-01T08:39:27.261Z,80.30
2018-09-01T08:40:27.218Z,80.69
2018-09-01T08:41:27.157Z,80.30
2018-09-01T08:42:27.125Z,80.50
2018-09-01T08:43:27.080Z,80.30
2018-09-01T08:44:27.021Z,80.30
2018-09-01T08:45:27.125Z,80.60
2018-09-01T08:46:26.939Z,80.50
2018-09-01T08:47:26.894Z,80.50
2018-09-01T08:48:26.845Z,80.79
2018-09-01T08:49:26.799Z,80.40
2018-09-01T08:50:26.756Z,80.21
2018-09-01T08:51:26.709Z,80.02
2018-09-01T08:52:26.663Z,79.82
2018-09-01T08:53:26.622Z,79.05
2018-09-01T08:54:26.575Z,78.67
2018-09-01T08:55:26.517Z,78.19
2018-09-01T08:56:26.492Z,78.28
2018-09-01T08:57:26.422Z,79.05
2018-09-01T08:58:26.372Z,80.11
2018-09-01T08:59:26.338Z,80.79
2018-09-01T09:00:26.294Z,81.27
2018-09-01T09:01:26.252Z,80.98
2018-09-01T09:02:26.202Z,81.27
2018-09-01T09:03:26.155Z,81.17
2018-09-01T09:04:26.116Z,80.79
2018-09-01T09:05:26.075Z,81.27
2018-09-01T09:06:26.019Z,81.37
2018-09-01T09:07:25.969Z,80.79
2018-09-01T09:08:25.923Z,81.37
2018-09-01T09:09:25.862Z,80.69
2018-09-01T09:10:25.838Z,81.27
2018-09-01T09:11:25.771Z,80.69
2018-09-01T09:12:25.744Z,80.21
2018-09-01T09:13:25.692Z,80.50
2018-09-01T09:14:25.638Z,80.02
2018-09-01T09:15:25.599Z,80.50
2018-09-01T09:16:25.554Z,80.50
2018-09-01T09:17:25.505Z,80.40
2018-09-01T09:18:25.475Z,79.82
2018-09-01T09:19:25.405Z,79.63
2018-09-01T09:20:25.361Z,79.44
2018-09-01T09:21:25.320Z,80.11
2018-09-01T09:22:25.281Z,79.73
2018-09-01T09:23:25.225Z,79.73
2018-09-01T09:24:25.181Z,79.82
2018-09-01T09:25:25.140Z,79.92
2018-09-01T09:26:25.071Z,80.50
2018-09-01T09:27:25.050Z,80.50
2018-09-01T09:28:24.986Z,80.40
2018-09-01T09:29:24.948Z,80.79
2018-09-01T09:30:24.907Z,80.60
2018-09-01T09:31:24.856Z,80.02
2018-09-01T09:32:24.812Z,80.50
2018-09-01T09:33:24.767Z,80.60
2018-09-01T09:34:24.721Z,81.27
2018-09-01T09:35:24.672Z,80.88
2018-09-01T09:36:24.628Z,80.79
2018-09-01T09:37:24.577Z,80.60
2018-09-01T09:38:24.532Z,80.98
2018-09-01T09:39:24.481Z,81.46
2018-09-01T09:40:24.443Z,81.07
2018-09-01T09:41:24.401Z,80.84
2018-09-01T09:42:24.334Z,81.37
2018-09-01T09:43:24.305Z,81.27
2018-09-01T09:44:24.263Z,81.46
2018-09-01T09:45:24.212Z,81.07
2018-09-01T09:46:24.165Z,80.98
2018-09-01T09:47:24.124Z,81.17
2018-09-01T09:48:24.073Z,81.75
2018-09-01T09:49:24.023Z,81.37
2018-09-01T09:50:23.981Z,80.88
2018-09-01T09:51:23.927Z,80.79
2018-09-01T09:52:23.882Z,81.56
2018-09-01T09:53:23.842Z,81.90
2018-09-01T09:54:23.792Z,81.84
2018-09-01T09:55:23.749Z,81.27
2018-09-01T09:56:23.699Z,81.07
2018-09-01T09:57:23.660Z,80.69
2018-09-01T09:58:23.739Z,80.60
2018-09-01T09:59:23.571Z,81.37
2018-09-01T10:00:23.521Z,80.88
2018-09-01T10:01:23.475Z,81.56
2018-09-01T10:02:23.430Z,81.27
2018-09-01T10:03:23.403Z,81.17
2018-09-01T10:04:23.337Z,80.98
2018-09-01T10:05:23.295Z,81.07
2018-09-01T10:06:23.239Z,81.17
2018-09-01T10:07:23.197Z,80.60
2018-09-01T10:08:23.154Z,80.69
2018-09-01T10:09:23.095Z,80.60
2018-09-01T10:10:23.063Z,80.44
2018-09-01T10:11:23.017Z,79.48
2018-09-01T10:12:22.972Z,79.28
2018-09-01T10:13:22.922Z,79.19
2018-09-01T10:14:22.880Z,78.90
2018-09-01T10:15:22.833Z,78.61
2018-09-01T10:16:22.776Z,79.00
2018-09-01T10:17:22.728Z,78.90
2018-09-01T10:18:22.698Z,78.81
2018-09-01T10:19:22.663Z,78.36
2018-09-01T10:20:22.710Z,77.98
2018-09-01T10:21:22.567Z,78.46
2018-09-01T10:22:22.505Z,77.78
2018-09-01T10:23:22.462Z,77.01
2018-09-01T10:24:22.437Z,76.48
2018-09-01T10:25:22.387Z,75.45
2018-09-01T10:26:22.337Z,74.88
2018-09-01T10:27:22.295Z,74.10
2018-09-01T10:28:22.256Z,73.08
2018-09-01T10:29:22.197Z,72.83
2018-09-01T10:30:22.195Z,71.86
2018-09-01T10:31:22.133Z,70.94
2018-09-01T10:32:22.094Z,69.97
2018-09-01T10:33:22.048Z,69.58
2018-09-01T10:34:22.016Z,69.13
2018-09-01T10:35:21.977Z,67.78
2018-09-01T10:36:21.936Z,67.43
2018-09-01T10:37:21.894Z,66.75
2018-09-01T10:38:21.873Z,65.43
2018-09-01T10:39:21.817Z,65.14
2018-09-01T10:40:21.778Z,63.82
2018-09-01T10:41:21.738Z,63.46
2018-09-01T10:42:21.699Z,62.01
2018-09-01T10:43:21.668Z,61.24
2018-09-01T10:44:21.634Z,61.15
2018-09-01T10:45:21.601Z,60.50
2018-09-01T10:46:21.575Z,59.72
2018-09-01T10:47:21.528Z,59.33
2018-09-01T10:48:21.493Z,58.49
2018-09-01T10:49:21.451Z,58.11
2018-09-01T10:50:21.421Z,58.49
2018-09-01T10:51:21.391Z,57.45
2018-09-01T10:52:21.358Z,57.36
2018-09-01T10:53:21.330Z,56.20
2018-09-01T10:54:21.282Z,55.54
2018-09-01T10:55:21.254Z,55.54
2018-09-01T10:56:21.223Z,55.35
2018-09-01T10:57:21.173Z,55.83
2018-09-01T10:58:21.149Z,55.32
2018-09-01T10:59:21.124Z,54.35
2018-09-01T11:00:21.075Z,54.16
2018-09-01T11:01:21.039Z,55.32
2018-09-01T11:02:21.002Z,55.49
2018-09-01T11:03:20.969Z,55.40
2018-09-01T11:04:20.929Z,55.20
2018-09-01T11:05:20.898Z,55.78
2018-09-01T11:06:20.858Z,56.07
2018-09-01T11:07:20.811Z,57.23
2018-09-01T11:08:20.780Z,57.20
2018-09-01T11:09:20.727Z,57.11
2018-09-01T11:10:20.692Z,57.01
2018-09-01T11:11:20.657Z,56.52
2018-09-01T11:12:20.605Z,56.72
2018-09-01T11:13:20.579Z,56.62
2018-09-01T11:14:20.536Z,56.43
2018-09-01T11:15:20.486Z,57.30
2018-09-01T11:16:20.467Z,56.62
2018-09-01T11:17:20.433Z,57.30
2018-09-01T11:18:20.376Z,55.82
2018-09-01T11:19:20.337Z,55.85
2018-09-01T11:20:20.402Z,55.82
2018-09-01T11:21:20.252Z,56.79
2018-09-01T11:22:20.208Z,56.50
2018-09-01T11:23:20.164Z,57.18
2018-09-01T11:24:20.124Z,56.79
2018-09-01T11:25:20.083Z,56.50
2018-09-01T11:26:20.026Z,57.18
2018-09-01T11:27:20.018Z,56.30
2018-09-01T11:28:19.957Z,56.70
2018-09-01T11:29:19.916Z,56.60
2018-09-01T11:30:19.874Z,55.53
2018-09-01T11:31:19.836Z,55.92
2018-09-01T11:32:19.775Z,56.02
2018-09-01T11:33:19.745Z,56.70
2018-09-01T11:34:19.708Z,56.40
2018-09-01T11:35:19.663Z,56.88
2018-09-01T11:36:19.619Z,56.60
2018-09-01T11:37:19.576Z,57.18
2018-09-01T11:38:19.557Z,56.30
2018-09-01T11:39:19.501Z,56.70
2018-09-01T11:40:19.467Z,56.60
2018-09-01T11:41:19.399Z,56.50
2018-09-01T11:42:19.362Z,56.60
2018-09-01T11:43:19.413Z,56.70
2018-09-01T11:44:19.279Z,57.08
2018-09-01T11:45:19.239Z,56.79
2018-09-01T11:46:19.198Z,55.53
2018-09-01T11:47:19.147Z,55.63
2018-09-01T11:48:19.103Z,57.28
2018-09-01T11:49:19.058Z,56.79
2018-09-01T11:50:19.005Z,57.08
2018-09-01T11:51:18.976Z,55.24
2018-09-01T11:52:18.951Z,54.66
2018-09-01T11:53:19.024Z,54.17
2018-09-01T11:54:18.849Z,54.85
2018-09-01T11:55:18.808Z,54.75
2018-09-01T11:56:18.788Z,55.73
2018-09-01T11:57:18.718Z,55.43
2018-09-01T11:58:18.659Z,55.82
2018-09-01T11:59:18.633Z,54.98
2018-09-01T12:00:18.595Z,55.85
2018-09-01T12:01:18.532Z,54.88
2018-09-01T12:02:18.509Z,55.36
2018-09-01T12:03:18.457Z,55.63
2018-09-01T12:04:18.419Z,55.53
2018-09-01T12:05:18.377Z,55.53
2018-09-01T12:06:18.346Z,55.27
2018-09-01T12:07:18.291Z,55.34
2018-09-01T12:08:18.249Z,55.34
2018-09-01T12:09:18.254Z,53.99
2018-09-01T12:10:18.193Z,54.37
2018-09-01T12:11:18.119Z,54.08
2018-09-01T12:12:18.075Z,54.37
2018-09-01T12:13:18.025Z,54.08
2018-09-01T12:14:17.984Z,53.72
2018-09-01T12:15:17.943Z,53.04
2018-09-01T12:16:17.900Z,54.01
2018-09-01T12:17:17.860Z,55.27
2018-09-01T12:18:17.815Z,55.56
2018-09-01T12:19:17.767Z,54.49
2018-09-01T12:20:17.713Z,54.49
2018-09-01T12:21:17.686Z,54.21
2018-09-01T12:22:17.695Z,54.01
2018-09-01T12:23:17.602Z,53.63
2018-09-01T12:24:17.551Z,53.72
2018-09-01T12:25:17.509Z,53.63
2018-09-01T12:26:17.460Z,53.81
2018-09-01T12:27:17.423Z,54.23
2018-09-01T12:28:17.502Z,53.94
2018-09-01T12:29:17.337Z,54.13
2018-09-01T12:30:17.300Z,53.17
2018-09-01T12:31:17.255Z,53.07
2018-09-01T12:32:17.215Z,53.36
2018-09-01T12:33:17.168Z,52.42
2018-09-01T12:34:17.126Z,52.90
2018-09-01T12:35:17.119Z,52.61
2018-09-01T12:36:17.143Z,52.51
2018-09-01T12:37:17.002Z,51.06
2018-09-01T12:38:16.937Z,51.35
2018-09-01T12:39:16.907Z,51.54
2018-09-01T12:40:16.872Z,51.93
2018-09-01T12:41:16.812Z,52.61
2018-09-01T12:42:16.786Z,52.42
2018-09-01T12:43:16.747Z,52.12
2018-09-01T12:44:16.696Z,51.64
2018-09-01T12:45:16.658Z,50.96
2018-09-01T12:46:16.611Z,51.35
2018-09-01T12:47:16.562Z,50.38
2018-09-01T12:48:16.510Z,50.19
2018-09-01T12:49:16.481Z,49.41
2018-09-01T12:50:16.439Z,49.92
2018-09-01T12:51:16.397Z,49.73
2018-09-01T12:52:16.365Z,48.95